Latest Coastal Weather Observations for Lord Howe Island

IDN60701

Issued at 6:25 pm EDT Tuesday 21 October 2014 (issued every 10 minutes, with the page automatically refreshed every 10 minutes)

About coastal observations | Map of coastal stations | Coastal observations for NSW | Marine services | Other Formats
Station Details ID: 200839 Name: LORD HOWE ISLAND AERO Lat: -31.54 Lon: 159.08 Height: 5.0 m
Data from the previous 72 hours. | See also: Recent months at Lord Howe Island
Date/Time
EDT
Temp

°C
Wind Pressure Rain
since 9am
mm
Weather Cloud Vis
km
Sea
Height
m
Swell
Dir
 
Speed
knots
Gust
knots
hPa Trend Height
m
Period
s
Dir
21/06:17pm 15.7 E 15 30 1027.0 - 0.0 - Partly cloudy 10 - - - -
21/06:00pm 16.1 SSE 8 13 1027.1 - 0.0 - Cloudy 10 - - - -
21/05:44pm 16.2 SE 13 31 1027.1 - 0.0 - Partly cloudy 10 - - - -
21/05:43pm 16.2 E 20 31 1026.8 - 0.0 - Partly cloudy 10 - - - -
21/05:41pm 16.2 E 22 29 1026.4 - 0.0 - Partly cloudy 10 - - - -
21/05:30pm 16.3 SE 9 21 1026.9 - 0.0 - Partly cloudy 10 - - - -
21/05:00pm 16.0 SSE 9 16 1026.9 - 0.0 - Partly cloudy 10 - - - -
21/04:30pm 15.2 ESE 10 18 1027.0 - 0.0 - Partly cloudy 10 - - - -
21/04:00pm 16.3 E 13 22 1026.4 - 0.0 - Partly cloudy 10 - - - -
21/03:30pm 16.7 S 8 11 1026.6 - 0.0 - Cloudy 10 - - - -
21/03:00pm 16.6 E 9 11 1026.6 R 0.0 Fine Mostly cloudy 22 - - - -
21/02:30pm 17.1 E 13 23 1026.7 - 0.0 - Mostly clear 10 - - - -
21/02:04pm 16.9 E 15 28 1026.7 - 0.0 - Partly cloudy 10 - - - -
21/02:00pm 16.9 E 11 19 1027.0 - 0.0 - Partly cloudy 10 - - - -
21/01:30pm 16.9 ESE 11 23 1027.1 - 0.0 - Partly cloudy 10 - - - -
21/01:15pm 18.0 E 15 25 1027.0 - 0.0 - Partly cloudy 10 - - - -
21/01:00pm 17.1 SSE 11 15 1027.3 - 0.0 - Mostly clear 10 - - - -
21/12:39pm 16.9 E 19 29 1027.3 - 0.0 - Partly cloudy 10 - - - -
21/12:36pm 16.7 E 18 27 1027.0 - 0.0 - Partly cloudy 10 - - - -
21/12:30pm 17.1 SE 10 16 1027.5 - 0.0 - Partly cloudy 10 - - - -
21/12:00pm 17.4 E 13 32 1027.4 R 0.0 Fine Mostly cloudy 22 - - - -
21/11:52am 18.5 E 15 26 1027.1 - 0.0 - Mostly clear 10 - - - -
21/11:48am 18.5 ENE 15 22 1027.3 - 0.0 - Mostly clear 10 - - - -
21/11:30am 18.0 SW 7 12 1027.7 - 0.0 - Mostly clear 10 - - - -
21/11:00am 18.4 E 13 23 1027.5 - 0.0 - Mostly clear 10 - - - -
21/10:30am 16.9 WSW 8 17 1027.8 - 0.0 - Partly cloudy 10 - - - -
21/10:00am 17.3 SSE 6 12 1028.0 - 0.0 - Partly cloudy 10 - - - -
21/09:30am 17.2 SW 10 15 1027.9 - 0.0 - Partly cloudy 10 - - - -
21/09:00am 16.8 ESE 9 18 1027.7 R 9.8 Fine Mostly cloudy 22 - - - -
21/08:30am 16.7 ESE 7 13 1027.7 - 9.8 - Mostly clear 10 - - - -
21/08:00am 16.6 E 14 24 1027.1 - 9.8 - Partly cloudy 10 - - - -
21/07:30am 17.0 SE 9 15 1027.0 - 9.8 - Mostly clear 10 - - - -
21/07:00am 16.8 SE 10 17 1026.6 - 9.8 - Mostly clear 10 - - - -
21/06:30am 16.4 SE 11 17 1026.3 - 9.8 - Mostly clear 10 - - - -
21/06:00am 16.3 SE 11 26 1025.9 S 9.8 Haze Mostly cloudy 18 - - - -
21/05:30am 16.5 SE 12 23 1025.7 - 9.8 - Partly cloudy 10 - - - -
21/05:00am 16.6 ESE 11 17 1025.3 - 9.8 - Partly cloudy 10 - - - -
21/04:30am 16.6 SE 10 15 1025.0 - 9.8 - Partly cloudy 10 - - - -
21/04:00am 16.5 SE 10 17 1024.9 - 9.8 - Partly cloudy 10 - - - -
21/03:30am 16.7 SE 10 17 1024.9 - 9.8 - Partly cloudy 10 - - - -
21/03:00am 16.5 ESE 12 21 1024.9 - 9.8 - Cloudy 10 - - - -
21/02:41am 16.2 SE 12 21 1024.9 - 9.8 - Partly cloudy 10 - - - -
21/02:30am 16.3 SE 12 21 1025.0 - 9.8 - Partly cloudy 6 - - - -
21/02:00am 15.9 SE 12 19 1025.0 - 8.8 - Partly cloudy 6 - - - -
21/01:51am 16.0 ESE 12 20 1025.1 - 8.4 - Partly cloudy 5 - - - -
21/01:38am 16.1 SE 15 26 1025.2 - 8.2 - Partly cloudy 5 - - - -
21/01:30am 15.8 ESE 14 21 1025.1 - 8.2 - Partly cloudy 6 - - - -
21/01:22am 15.9 ESE 15 27 1025.1 - 8.0 - Partly cloudy 5 - - - -
21/01:00am 16.3 SE 13 21 1025.3 - 6.4 - Partly cloudy 5 - - - -
21/12:30am 16.5 ESE 15 23 1025.2 - 4.0 - Partly cloudy 3 - - - -
21/12:00am 17.0 ESE 12 22 1025.3 - 0.4 - Cloudy 4 - - - -
 
Date/Time
EDT
Temp

°C
Wind Pressure Rain
since 9am
mm
Weather Cloud Vis
km
Sea
Height
m
Swell
Dir
 
Speed
knots
Gust
knots
hPa Trend Height
m
Period
s
Dir
20/11:54pm 17.3 ESE 11 18 1025.3 - 0.0 - Partly cloudy 6 - - - -
20/11:48pm 17.9 S 6 10 1025.3 - 0.0 - Partly cloudy 10 - - - -
20/11:30pm 18.5 WSW 11 15 1025.3 - 0.0 - Partly cloudy 10 - - - -
20/11:00pm 18.8 WSW 9 12 1025.3 - 0.0 - Cloudy 10 - - - -
20/10:30pm 18.9 WSW 10 13 1025.4 - 0.0 - Partly cloudy 10 - - - -
20/10:00pm 18.6 WSW 10 12 1025.2 - 0.0 - Partly cloudy 10 - - - -
20/09:30pm 18.4 WSW 10 12 1025.2 - 0.0 - Partly cloudy 10 - - - -
20/09:00pm 17.2 SW 5 7 1024.9 - 0.0 - Partly cloudy 10 - - - -
20/08:30pm 16.7 SSW 5 7 1024.7 - 0.0 - - 10 - - - -
20/08:00pm 17.3 SW 5 8 1024.5 - 0.0 - - 10 - - - -
20/07:30pm 17.6 SW 6 8 1024.5 - 0.0 - - 10 - - - -
20/07:00pm 17.6 SSW 5 7 1024.2 - 0.0 - - 10 - - - -
20/06:30pm 18.0 SW 5 7 1024.1 - 0.0 - - 10 - - - -
20/06:00pm 18.4 SW 6 9 1024.2 - 0.0 - - 10 - - - -
20/05:30pm 18.8 SW 8 11 1024.3 - 0.0 - - 10 - - - -
20/05:00pm 19.1 SW 8 12 1024.4 - 0.0 - Partly cloudy 10 - - - -
20/04:30pm 19.3 SW 10 14 1024.5 - 0.0 - Partly cloudy 10 - - - -
20/04:00pm 19.9 SW 11 14 1024.5 - 0.0 - Partly cloudy 10 - - - -
20/03:30pm 19.7 WSW 10 13 1024.6 - 0.0 - Partly cloudy 10 - - - -
20/03:00pm 20.1 SW 10 14 1024.8 R 0.0 Fine Mostly cloudy 30 - - - -
20/02:30pm 20.0 WSW 11 14 1025.1 - 0.0 - Partly cloudy 10 - - - -
20/02:00pm 19.4 WSW 9 13 1025.2 - 0.0 - Partly cloudy 10 - - - -
20/01:30pm 19.7 WSW 9 13 1025.1 - 0.0 - Partly cloudy 10 - - - -
20/01:00pm 19.8 WSW 8 11 1025.3 - 0.0 - Partly cloudy 10 - - - -
20/12:30pm 20.0 WSW 8 13 1025.6 - 0.0 - Mostly clear 10 - - - -
20/12:00pm 19.7 WSW 7 9 1025.6 R 0.0 Fine Mostly clear 30 - - - -
20/11:30am 19.9 WSW 8 10 1025.9 - 0.0 - Mostly clear 10 - - - -
20/11:00am 19.2 WSW 9 12 1026.1 - 0.0 - Mostly clear 10 - - - -
20/10:30am 19.3 SW 6 8 1026.2 - 0.0 - Partly cloudy 10 - - - -
20/10:00am 19.5 W 7 9 1026.3 - 0.0 - Mostly clear 10 - - - -
20/09:30am 18.7 WSW 7 8 1026.2 - 0.0 - Mostly clear 10 - - - -
20/09:00am 18.5 SW 4 7 1026.1 F 0.0 Fine Mostly clear 30 - - - -
20/08:30am 18.7 NE 6 8 1026.0 - 0.0 - Mostly clear 10 - - - -
20/08:00am 18.2 ENE 5 7 1025.7 - 0.0 - - 10 - - - -
20/07:30am 17.5 NE 4 5 1025.8 - 0.0 - Mostly clear 10 - - - -
20/07:00am 15.2 CALM 0 0 1025.7 - 0.0 - Mostly clear 10 - - - -
20/06:30am 13.0 CALM 0 0 1025.7 - 0.0 - Mostly clear 10 - - - -
20/06:00am 10.8 CALM 0 0 1025.6 F 0.0 Fine Partly cloudy 30 - - - -
20/05:30am 10.6 CALM 0 0 1025.4 - 0.0 - Partly cloudy 10 - - - -
20/05:00am 11.0 CALM 0 0 1025.2 - 0.0 - Partly cloudy 10 - - - -
20/04:30am 12.1 CALM 0 0 1024.8 - 0.0 - - 10 - - - -
20/04:00am 12.9 N 1 5 1024.7 - 0.0 - Partly cloudy 10 - - - -
20/03:30am 14.6 ESE 1 4 1024.9 - 0.0 - Cloudy 10 - - - -
20/03:00am 16.1 E 8 11 1025.1 - 0.0 - Mostly cloudy 10 - - - -
20/02:30am 16.0 ENE 6 9 1025.6 - 0.0 - Cloudy 10 - - - -
20/02:00am 16.2 ESE 4 7 1026.0 - 0.0 - Cloudy 10 - - - -
20/01:30am 16.5 ESE 4 7 1026.2 - 0.0 - Cloudy 10 - - - -
20/01:00am 16.4 E 7 10 1026.5 - 0.0 - Cloudy 10 - - - -
20/12:30am 16.2 SE 3 5 1026.7 - 0.0 - Cloudy 10 - - - -
20/12:00am 16.4 SSE 4 6 1026.9 - 0.0 - Cloudy 10 - - - -
 
Date/Time
EDT
Temp

°C
Wind Pressure Rain
since 9am
mm
Weather Cloud Vis
km
Sea
Height
m
Swell
Dir
 
Speed
knots
Gust
knots
hPa Trend Height
m
Period
s
Dir
19/11:30pm 16.0 SE 3 5 1027.0 - 0.0 - Cloudy 10 - - - -
19/11:00pm 16.1 E 5 9 1027.3 - 0.0 - Partly cloudy 10 - - - -
19/10:30pm 16.4 SE 4 5 1027.3 - 0.0 - Cloudy 10 - - - -
19/10:00pm 16.4 SE 5 7 1027.3 - 0.0 - Partly cloudy 10 - - - -
19/09:30pm 16.0 SE 5 7 1027.3 - 0.0 - Partly cloudy 10 - - - -
19/09:00pm 15.9 SE 5 8 1027.2 - 0.0 - Mostly cloudy 10 - - - -
19/08:30pm 15.9 SE 5 7 1027.0 - 0.0 - Partly cloudy 10 - - - -
19/08:00pm 15.5 E 4 6 1026.8 - 0.0 - - 10 - - - -
19/07:30pm 15.8 E 3 7 1026.6 - 0.0 - Partly cloudy 10 - - - -
19/07:00pm 16.0 S 3 6 1026.3 - 0.0 - Partly cloudy 10 - - - -
19/06:30pm 16.3 SE 4 6 1026.1 - 0.0 - Cloudy 10 - - - -
19/06:00pm 17.1 SE 5 10 1026.1 - 0.0 - Cloudy 10 - - - -
19/05:30pm 17.4 SE 3 6 1026.1 - 0.0 - Partly cloudy 10 - - - -
19/05:00pm 18.1 SSE 5 10 1025.8 - 0.0 - Partly cloudy 10 - - - -
19/04:30pm 18.1 SE 7 13 1025.7 - 0.0 - Partly cloudy 10 - - - -
19/04:00pm 18.7 ESE 8 20 1025.7 - 0.0 - Partly cloudy 10 - - - -
19/03:30pm 18.4 E 9 14 1025.7 - 0.0 - Partly cloudy 10 - - - -
19/03:00pm 18.3 E 11 16 1025.5 F 0.0 Fine Mostly clear 25 - - - -
19/02:30pm 18.4 E 10 15 1026.0 - 0.0 - - 10 - - - -
19/02:00pm 18.5 E 11 16 1026.1 - 0.0 - - 10 - - - -
19/01:30pm 18.7 S 6 12 1026.6 - 0.0 - Partly cloudy 10 - - - -
19/01:00pm 19.5 SSE 5 10 1026.9 - 0.0 - - 10 - - - -
19/12:30pm 18.8 SSE 6 15 1027.0 - 0.0 - - 10 - - - -
19/12:00pm 19.4 SW 6 10 1027.2 - 0.0 - - 10 - - - -
19/11:30am 18.8 S 6 11 1027.7 - 0.0 - Partly cloudy 10 - - - -
19/11:00am 18.1 S 5 11 1027.8 - 0.0 - Cloudy 10 - - - -
19/10:30am 18.1 SSW 6 12 1028.1 - 0.0 - Cloudy 10 - - - -
19/10:00am 18.0 SW 5 10 1028.3 - 0.0 - Partly cloudy 10 - - - -
19/09:30am 17.0 SSW 5 11 1028.2 - 0.0 - Partly cloudy 10 - - - -
19/09:00am 17.2 E 7 13 1027.7 R 1.2 Fine Partly cloudy 20 - - - -
19/08:30am 17.1 S 6 15 1027.8 - 1.2 - Partly cloudy 10 - - - -
19/08:00am 17.4 E 9 19 1027.4 - 1.2 - Cloudy 10 - - - -
19/07:30am 17.8 E 6 12 1027.4 - 1.2 - Partly cloudy 10 - - - -
19/07:00am 16.7 ESE 5 8 1027.1 - 1.2 - Partly cloudy 10 - - - -
19/06:30am 16.4 SE 5 8 1026.8 - 1.2 - Partly cloudy 10 - - - -
19/06:00am 16.4 SSE 5 10 1026.3 R 1.2 Fine Partly cloudy 20 - - - -
19/05:30am 15.9 E 5 11 1026.1 - 1.2 - Cloudy 10 - - - -
19/05:00am 15.6 E 6 10 1025.8 - 1.2 - Partly cloudy 10 - - - -
19/04:30am 15.1 SE 2 5 1025.7 - 1.2 - Partly cloudy 10 - - - -
19/04:00am 16.0 SE 5 9 1025.6 - 1.2 - Partly cloudy 10 - - - -
19/03:30am 15.8 ESE 7 10 1025.6 - 1.2 - - 10 - - - -
19/03:00am 15.9 ESE 8 13 1025.7 - 1.2 - - 10 - - - -
19/02:30am 15.6 SE 5 9 1025.9 - 1.2 - - 10 - - - -
19/02:00am 16.1 SE 8 12 1026.1 - 1.2 - - 10 - - - -
19/01:30am 16.0 SE 7 12 1026.3 - 1.2 - - 10 - - - -
19/01:00am 16.0 ESE 6 9 1026.5 - 1.2 - - 10 - - - -
19/12:30am 16.3 S 8 15 1026.7 - 1.2 - Partly cloudy 10 - - - -
19/12:00am 16.2 SE 6 13 1026.9 - 1.2 - Mostly clear 10 - - - -
 
Date/Time
EDT
Temp

°C
Wind Pressure Rain
since 9am
mm
Weather Cloud Vis
km
Sea
Height
m
Swell
Dir
 
Speed
knots
Gust
knots
hPa Trend Height
m
Period
s
Dir
18/11:30pm 16.1 S 6 11 1027.1 - 1.2 - - 10 - - - -
18/11:00pm 16.2 SE 7 11 1027.3 - 1.2 - Partly cloudy 10 - - - -
18/10:30pm 16.6 SSW 10 20 1027.3 - 1.2 - Cloudy 10 - - - -
18/10:00pm 16.7 SSW 10 21 1027.1 - 1.2 - Cloudy 10 - - - -
18/09:30pm 16.9 SSW 10 19 1027.1 - 1.2 - Cloudy 10 - - - -
18/09:00pm 17.2 SW 8 17 1027.0 - 1.2 - Mostly cloudy 10 - - - -
18/08:30pm 17.0 SSW 5 13 1026.8 - 1.2 - Cloudy 10 - - - -
18/08:00pm 17.0 SSE 6 17 1026.2 - 1.2 - Partly cloudy 10 - - - -
18/07:30pm 16.8 S 6 12 1026.0 - 1.2 - Cloudy 10 - - - -
18/07:00pm 16.7 S 6 18 1025.7 - 1.2 - Partly cloudy 10 - - - -
18/06:30pm 16.7 SSE 6 13 1025.3 - 1.2 - Partly cloudy 10 - - - -

Other Formats:

Comma delimited format used in spreadsheet applications
http://www.bom.gov.au/fwo/IDN60701/IDN60701.94995.axf

JavaScript Object Notation format (JSON) in row-major order
http://www.bom.gov.au/fwo/IDN60701/IDN60701.94995.json